Time;durP1;ratioP1;P1;durP2;ratioP2;P2;SDS_P1;SDS_P2;PMS_P1;PMS_P2;Temp;Humidity;BMP_temperature;BMP_pressure;BME280_temperature;BME280_humidity;BME280_pressure;Samples;Min_cycle;Max_cycle;Signal;HPM_P1;HPM_P2
2023/08/27 00:00:39;;;;;;;9.55;7.45;;;14.50;99.90;;;;;;5077833;28;20029;-58
2023/08/27 00:03:05;;;;;;;9.07;6.80;;;14.50;99.90;;;;;;5080536;28;20040;-58
2023/08/27 00:05:30;;;;;;;8.35;7.55;;;14.40;99.90;;;;;;5077451;28;20481;-57
2023/08/27 00:07:56;;;;;;;8.98;7.13;;;14.50;99.90;;;;;;5067544;28;20056;-55
2023/08/27 00:10:22;;;;;;;10.25;7.22;;;14.40;99.90;;;;;;5058869;28;20128;-58
2023/08/27 00:12:48;;;;;;;8.00;7.20;;;14.40;99.90;;;;;;5059855;28;20045;-58
2023/08/27 00:15:14;;;;;;;10.95;7.95;;;14.30;99.90;;;;;;5076741;28;20040;-58
2023/08/27 00:17:39;;;;;;;9.35;8.02;;;14.30;99.90;;;;;;5077562;28;20041;-58
2023/08/27 00:20:10;;;;;;;10.02;8.70;;;14.30;99.90;;;;;;5085269;28;20097;-57
2023/08/27 00:22:39;;;;;;;14.60;9.45;;;14.30;99.90;;;;;;5082139;28;20064;-59
2023/08/27 00:25:05;;;;;;;12.23;9.27;;;14.30;99.90;;;;;;5067686;28;20228;-57
2023/08/27 00:27:33;;;;;;;11.25;8.90;;;14.30;99.90;;;;;;5086954;28;20083;-58
2023/08/27 00:30:00;;;;;;;10.20;8.70;;;14.30;99.90;;;;;;5097862;28;20080;-58
2023/08/27 00:32:28;;;;;;;13.15;8.55;;;14.30;99.90;;;;;;5099048;28;20044;-58
2023/08/27 00:34:54;;;;;;;9.35;8.35;;;14.20;99.90;;;;;;5083827;28;20556;-60
2023/08/27 00:37:20;;;;;;;13.32;8.00;;;14.20;99.90;;;;;;5081992;28;20065;-58
2023/08/27 00:39:45;;;;;;;13.65;8.40;;;14.20;99.90;;;;;;5062222;28;20135;-58
2023/08/27 00:42:11;;;;;;;12.95;8.00;;;14.20;99.90;;;;;;5075783;28;20055;-58
2023/08/27 00:44:37;;;;;;;9.85;8.57;;;14.20;99.90;;;;;;5080084;28;20032;-58
2023/08/27 00:47:04;;;;;;;9.90;8.40;;;14.20;99.90;;;;;;5081711;28;20048;-62
2023/08/27 00:49:30;;;;;;;9.80;8.27;;;14.20;99.90;;;;;;5092396;28;20044;-59
2023/08/27 00:51:56;;;;;;;9.95;7.90;;;14.20;99.90;;;;;;5083260;28;20108;-58
2023/08/27 00:54:23;;;;;;;8.43;7.40;;;14.20;99.90;;;;;;5088279;28;20083;-59
2023/08/27 00:56:50;;;;;;;10.10;7.78;;;14.20;99.90;;;;;;5093207;28;20181;-57
2023/08/27 00:59:16;;;;;;;9.40;8.07;;;14.20;99.90;;;;;;5067541;28;20529;-58
2023/08/27 01:01:43;;;;;;;10.25;7.72;;;14.20;99.90;;;;;;5074189;28;20074;-57
2023/08/27 01:04:09;;;;;;;10.65;7.72;;;14.20;99.90;;;;;;5081672;28;20045;-58
2023/08/27 01:06:35;;;;;;;8.70;7.80;;;14.20;99.90;;;;;;5086296;28;20048;-57
2023/08/27 01:09:20;;;;;;;8.18;7.30;;;14.20;99.90;;;;;;5093498;28;20078;-58
2023/08/27 01:11:57;;;;;;;9.77;7.60;;;14.20;99.90;;;;;;5082741;28;20093;-58
2023/08/27 01:14:26;;;;;;;9.95;7.85;;;14.20;99.90;;;;;;5079470;28;20040;-57
2023/08/27 01:16:52;;;;;;;10.30;8.13;;;14.20;99.90;;;;;;5080985;28;20142;-58
2023/08/27 01:19:20;;;;;;;8.18;7.28;;;14.20;99.90;;;;;;5099833;28;20046;-58
2023/08/27 01:21:47;;;;;;;11.15;7.75;;;14.20;99.90;;;;;;5092353;28;20075;-58
2023/08/27 01:24:13;;;;;;;9.43;7.90;;;14.20;99.90;;;;;;5088481;28;20044;-58
2023/08/27 01:26:46;;;;;;;8.32;7.45;;;14.20;99.90;;;;;;5080320;28;20037;-58
2023/08/27 01:29:28;;;;;;;9.65;7.63;;;14.20;99.90;;;;;;5077494;28;20052;-57
2023/08/27 01:32:11;;;;;;;8.50;7.57;;;14.20;99.90;;;;;;5066617;28;20052;-59
2023/08/27 01:34:39;;;;;;;8.13;7.10;;;14.20;99.90;;;;;;5090550;28;20037;-58
2023/08/27 01:37:06;;;;;;;10.52;7.85;;;14.10;99.90;;;;;;5103610;28;20079;-57
2023/08/27 01:39:31;;;;;;;9.38;7.80;;;14.10;99.90;;;;;;5101028;28;20066;-58
2023/08/27 01:41:57;;;;;;;8.82;7.53;;;14.10;99.90;;;;;;5087722;28;20074;-58
2023/08/27 01:44:23;;;;;;;10.13;7.60;;;14.10;99.90;;;;;;5080533;28;20036;-57
2023/08/27 01:46:48;;;;;;;9.10;7.50;;;14.10;99.90;;;;;;5082441;28;20405;-57
2023/08/27 01:49:14;;;;;;;10.18;8.10;;;14.00;99.90;;;;;;5077205;28;20041;-59
2023/08/27 01:51:40;;;;;;;8.93;7.28;;;14.00;99.90;;;;;;5096289;28;20033;-58
2023/08/27 01:54:05;;;;;;;10.23;7.47;;;14.00;99.90;;;;;;5101710;28;20048;-57
2023/08/27 01:56:31;;;;;;;9.90;8.10;;;14.00;99.90;;;;;;5083094;28;20052;-58
2023/08/27 01:58:57;;;;;;;9.95;7.38;;;14.00;99.90;;;;;;5093569;28;20044;-58
2023/08/27 02:01:22;;;;;;;9.63;8.30;;;13.90;99.90;;;;;;5079652;28;20054;-57
2023/08/27 02:03:48;;;;;;;11.13;8.60;;;13.90;99.90;;;;;;5082285;28;20595;-58
2023/08/27 02:06:14;;;;;;;8.65;7.85;;;13.90;99.90;;;;;;5074428;28;20108;-58
2023/08/27 02:08:39;;;;;;;9.43;8.45;;;13.90;99.90;;;;;;5061131;28;20080;-58
2023/08/27 02:11:05;;;;;;;8.85;7.95;;;13.90;99.90;;;;;;5062162;28;20104;-58
2023/08/27 02:13:30;;;;;;;9.18;8.32;;;13.90;99.90;;;;;;5089270;28;20052;-58
2023/08/27 02:15:56;;;;;;;10.18;9.18;;;13.90;99.90;;;;;;5080861;28;20069;-57
2023/08/27 02:18:22;;;;;;;12.07;8.18;;;13.80;99.90;;;;;;5081169;28;20043;-58
2023/08/27 02:20:47;;;;;;;9.73;8.73;;;13.80;99.90;;;;;;5100041;28;20091;-57
2023/08/27 02:23:13;;;;;;;9.50;8.00;;;13.90;99.90;;;;;;5075472;28;20103;-57
2023/08/27 02:25:39;;;;;;;9.48;8.48;;;13.80;99.90;;;;;;5076388;28;20106;-58
2023/08/27 02:28:04;;;;;;;11.93;8.85;;;13.90;99.90;;;;;;5098320;28;20040;-57
2023/08/27 02:30:30;;;;;;;11.18;8.27;;;13.80;99.90;;;;;;5079074;28;20056;-58
2023/08/27 02:32:56;;;;;;;11.07;8.40;;;13.80;99.90;;;;;;5077922;28;20059;-58
2023/08/27 02:35:21;;;;;;;11.20;8.20;;;13.80;99.90;;;;;;5070834;28;20051;-57
2023/08/27 02:37:47;;;;;;;9.55;8.60;;;13.80;99.90;;;;;;5082134;28;20064;-57
2023/08/27 02:40:13;;;;;;;10.27;9.13;;;13.90;99.90;;;;;;5082397;28;20079;-57
2023/08/27 02:42:39;;;;;;;10.60;9.02;;;13.90;99.90;;;;;;5087578;28;20082;-58
2023/08/27 02:45:06;;;;;;;10.57;8.65;;;13.90;99.90;;;;;;5091369;28;20036;-58
2023/08/27 02:47:31;;;;;;;13.50;9.27;;;13.90;99.90;;;;;;5092799;28;20522;-58
2023/08/27 02:49:57;;;;;;;11.93;9.15;;;13.90;99.90;;;;;;5093765;28;20040;-59
2023/08/27 02:52:22;;;;;;;11.93;9.52;;;13.80;99.90;;;;;;5080836;28;20630;-58
2023/08/27 02:54:48;;;;;;;11.15;9.70;;;13.80;99.90;;;;;;5080596;28;20036;-58
2023/08/27 02:57:14;;;;;;;10.05;8.93;;;13.80;99.90;;;;;;5070631;28;20060;-58
2023/08/27 02:59:39;;;;;;;11.00;9.55;;;13.90;99.90;;;;;;5057780;28;20049;-58
2023/08/27 03:02:05;;;;;;;10.65;9.55;;;13.90;99.90;;;;;;5055826;28;20131;-58
2023/08/27 03:04:31;;;;;;;10.45;9.18;;;13.90;99.90;;;;;;5063980;28;20040;-57
2023/08/27 03:06:57;;;;;;;10.30;9.30;;;13.90;99.90;;;;;;5057788;28;20056;-59
2023/08/27 03:09:22;;;;;;;10.45;9.35;;;13.90;99.90;;;;;;5055786;28;20059;-58
2023/08/27 03:11:48;;;;;;;12.50;10.05;;;13.90;99.90;;;;;;5055676;28;20087;-58
2023/08/27 03:14:14;;;;;;;10.98;9.35;;;13.90;99.90;;;;;;5055316;28;20113;-58
2023/08/27 03:16:40;;;;;;;11.55;9.88;;;13.90;99.90;;;;;;5060903;28;20098;-58
2023/08/27 03:19:05;;;;;;;11.68;10.30;;;13.90;99.90;;;;;;5071836;28;20975;-57
2023/08/27 03:21:31;;;;;;;11.18;9.98;;;13.90;99.90;;;;;;5070737;28;20049;-58
2023/08/27 03:23:57;;;;;;;13.00;9.73;;;13.90;99.90;;;;;;5075623;28;20037;-58
2023/08/27 03:26:23;;;;;;;11.63;9.48;;;13.90;99.90;;;;;;5088745;28;20631;-57
2023/08/27 03:28:49;;;;;;;10.52;9.45;;;13.90;99.90;;;;;;5064880;28;20076;-58
2023/08/27 03:31:15;;;;;;;10.45;9.35;;;13.90;99.90;;;;;;5058636;28;20037;-58
2023/08/27 03:33:41;;;;;;;10.95;9.82;;;13.90;99.90;;;;;;5069422;28;20040;-58
2023/08/27 03:36:06;;;;;;;11.15;9.60;;;13.90;99.90;;;;;;5078562;28;20045;-58
2023/08/27 03:38:32;;;;;;;10.38;9.32;;;13.90;99.90;;;;;;5075679;28;20671;-58
2023/08/27 03:40:58;;;;;;;10.60;9.30;;;13.90;99.90;;;;;;5086100;28;20041;-58
2023/08/27 03:43:24;;;;;;;10.73;9.63;;;13.90;99.90;;;;;;5071663;28;20051;-58
2023/08/27 03:45:49;;;;;;;9.45;8.35;;;13.90;99.90;;;;;;5070445;28;20066;-59
2023/08/27 03:48:15;;;;;;;10.50;9.40;;;13.90;99.90;;;;;;5061036;28;20051;-58
2023/08/27 03:50:41;;;;;;;11.90;9.20;;;13.90;99.90;;;;;;5078780;28;20453;-58
2023/08/27 03:53:07;;;;;;;10.25;8.88;;;13.90;99.90;;;;;;5081678;28;20046;-58
2023/08/27 03:55:39;;;;;;;11.75;9.27;;;13.90;99.90;;;;;;5099659;28;20046;-58
2023/08/27 03:58:07;;;;;;;12.23;9.05;;;13.90;99.90;;;;;;5099796;28;20040;-57
2023/08/27 04:00:33;;;;;;;10.68;9.57;;;13.80;99.90;;;;;;5094021;28;20036;-58
2023/08/27 04:02:59;;;;;;;10.32;8.98;;;13.80;99.90;;;;;;5085145;28;20049;-58
2023/08/27 04:05:25;;;;;;;10.25;9.07;;;13.80;99.90;;;;;;5086979;28;20036;-57
2023/08/27 04:07:51;;;;;;;10.45;8.85;;;13.80;99.90;;;;;;5080755;28;20182;-58
2023/08/27 04:10:16;;;;;;;10.68;8.98;;;13.80;99.90;;;;;;5080346;28;20049;-58
2023/08/27 04:12:42;;;;;;;10.18;9.07;;;13.70;99.90;;;;;;5079801;28;20055;-58
2023/08/27 04:15:08;;;;;;;14.10;9.57;;;13.70;99.90;;;;;;5096009;28;20062;-59
2023/08/27 04:17:34;;;;;;;11.32;8.13;;;13.70;99.90;;;;;;5078739;28;20083;-58
2023/08/27 04:19:59;;;;;;;9.73;8.73;;;13.70;99.90;;;;;;5080116;28;20036;-59
2023/08/27 04:22:25;;;;;;;9.38;8.32;;;13.70;99.90;;;;;;5079304;28;20090;-59
2023/08/27 04:24:51;;;;;;;9.10;8.15;;;13.70;99.90;;;;;;5090674;28;20028;-58
2023/08/27 04:27:16;;;;;;;9.43;8.32;;;13.70;99.90;;;;;;5084456;28;20041;-57
2023/08/27 04:29:43;;;;;;;9.57;8.32;;;13.70;99.90;;;;;;5085912;28;20041;-57
2023/08/27 04:32:09;;;;;;;9.68;8.77;;;13.60;99.90;;;;;;5102499;28;20083;-58
2023/08/27 04:34:35;;;;;;;11.05;9.20;;;13.70;99.90;;;;;;5088752;28;20037;-57
2023/08/27 04:37:02;;;;;;;9.82;8.82;;;13.60;99.90;;;;;;5070188;28;20064;-58
2023/08/27 04:39:28;;;;;;;9.75;8.75;;;13.60;99.90;;;;;;5081189;28;20114;-57
2023/08/27 04:41:53;;;;;;;10.18;8.93;;;13.60;99.90;;;;;;5084257;28;20513;-58
2023/08/27 04:44:19;;;;;;;10.45;8.65;;;13.70;99.90;;;;;;5086619;28;20052;-57
2023/08/27 04:46:45;;;;;;;11.10;8.82;;;13.70;99.90;;;;;;5081665;28;20032;-62
2023/08/27 04:49:10;;;;;;;10.52;8.85;;;13.70;99.90;;;;;;5083112;28;20037;-57
2023/08/27 04:51:36;;;;;;;9.65;8.65;;;13.70;99.90;;;;;;5080364;28;20045;-57
2023/08/27 04:54:02;;;;;;;9.05;8.05;;;13.70;99.90;;;;;;5089790;28;20048;-58
2023/08/27 04:56:28;;;;;;;10.27;7.75;;;13.80;99.90;;;;;;5086557;28;20032;-58
2023/08/27 04:58:54;;;;;;;9.10;7.80;;;13.80;99.90;;;;;;5070947;28;20074;-58
2023/08/27 05:01:19;;;;;;;12.15;7.90;;;13.90;99.90;;;;;;5099772;28;20124;-57
2023/08/27 05:03:45;;;;;;;11.20;7.90;;;13.90;99.90;;;;;;5092887;28;20075;-58
2023/08/27 05:06:11;;;;;;;8.48;7.38;;;14.00;99.90;;;;;;5084340;28;20110;-57
2023/08/27 05:08:36;;;;;;;10.20;7.85;;;14.00;99.90;;;;;;5087097;28;20044;-57
2023/08/27 05:11:02;;;;;;;9.10;7.43;;;14.00;99.90;;;;;;5083408;28;20072;-57
2023/08/27 05:13:28;;;;;;;9.43;8.07;;;14.00;99.90;;;;;;5080439;28;20068;-58
2023/08/27 05:15:53;;;;;;;9.25;7.63;;;14.10;99.90;;;;;;5103305;28;20040;-58
2023/08/27 05:18:19;;;;;;;9.80;7.47;;;14.10;99.90;;;;;;5101432;28;20442;-58
2023/08/27 05:20:46;;;;;;;10.30;7.85;;;14.10;99.90;;;;;;5103439;28;20098;-59
2023/08/27 05:23:12;;;;;;;10.63;7.47;;;14.10;99.90;;;;;;5093877;28;20032;-59
2023/08/27 05:25:38;;;;;;;10.57;7.85;;;14.10;99.90;;;;;;5073223;28;20090;-59
2023/08/27 05:28:04;;;;;;;9.13;7.72;;;14.10;99.90;;;;;;5085439;28;20048;-58
2023/08/27 05:30:30;;;;;;;12.68;7.80;;;14.20;99.90;;;;;;5079248;28;20041;-59
2023/08/27 05:32:55;;;;;;;13.38;7.90;;;14.10;99.90;;;;;;5082731;28;20041;-59
2023/08/27 05:35:22;;;;;;;10.45;8.15;;;14.20;99.90;;;;;;5097424;28;20048;-59
2023/08/27 05:37:48;;;;;;;15.20;7.70;;;14.20;99.90;;;;;;5066971;28;20048;-59
2023/08/27 05:40:13;;;;;;;12.27;8.38;;;14.20;99.90;;;;;;5080044;28;20048;-58
2023/08/27 05:42:39;;;;;;;11.05;7.85;;;14.20;99.90;;;;;;5096147;28;20036;-60
2023/08/27 05:45:05;;;;;;;11.68;7.60;;;14.20;99.90;;;;;;5096033;28;20103;-59
2023/08/27 05:47:31;;;;;;;10.57;7.47;;;14.20;99.90;;;;;;5078042;28;20072;-60
2023/08/27 05:49:57;;;;;;;10.30;6.60;;;14.20;99.90;;;;;;5073390;28;20041;-59
2023/08/27 05:52:22;;;;;;;10.95;7.50;;;14.20;99.90;;;;;;5083594;28;20037;-60
2023/08/27 05:54:48;;;;;;;11.00;7.47;;;14.20;99.90;;;;;;5079709;28;20062;-60
2023/08/27 05:57:14;;;;;;;9.85;6.65;;;14.20;99.90;;;;;;5073924;28;20045;-59
2023/08/27 05:59:39;;;;;;;13.77;7.22;;;14.20;99.90;;;;;;5072692;28;20402;-60
2023/08/27 06:02:06;;;;;;;10.60;6.75;;;14.20;99.90;;;;;;5081396;28;20439;-59
2023/08/27 06:04:32;;;;;;;10.60;6.53;;;14.20;99.90;;;;;;5079622;28;20048;-60
2023/08/27 06:06:58;;;;;;;9.30;6.15;;;14.20;99.90;;;;;;5082264;28;20041;-60
2023/08/27 06:09:23;;;;;;;11.20;6.72;;;14.20;99.90;;;;;;5067598;28;20087;-60
2023/08/27 06:11:49;;;;;;;13.50;7.38;;;14.20;99.90;;;;;;5082696;28;20052;-59
2023/08/27 06:14:15;;;;;;;10.82;7.13;;;14.20;99.90;;;;;;5070627;28;20452;-59
2023/08/27 06:16:40;;;;;;;11.75;7.30;;;14.20;99.90;;;;;;5092363;28;20488;-59
2023/08/27 06:19:06;;;;;;;6.85;5.03;;;14.20;99.90;;;;;;5090765;28;20476;-59
2023/08/27 06:21:31;;;;;;;12.27;6.05;;;14.20;99.90;;;;;;5074035;28;20052;-60
2023/08/27 06:23:57;;;;;;;9.05;5.93;;;14.20;99.90;;;;;;5080367;28;20167;-59
2023/08/27 06:26:23;;;;;;;9.32;6.30;;;14.30;99.90;;;;;;5082124;28;20040;-59
2023/08/27 06:28:49;;;;;;;14.23;6.13;;;14.20;99.90;;;;;;5095249;28;20062;-60
2023/08/27 06:31:15;;;;;;;9.43;6.03;;;14.20;99.90;;;;;;5079685;28;20076;-59
2023/08/27 06:33:40;;;;;;;11.80;5.95;;;14.20;99.90;;;;;;5080777;28;20057;-59
2023/08/27 06:36:06;;;;;;;9.95;5.43;;;14.20;99.90;;;;;;5085545;28;20055;-59
2023/08/27 06:38:32;;;;;;;8.63;4.57;;;14.20;99.90;;;;;;5074090;28;20040;-60
2023/08/27 06:41:00;;;;;;;8.82;5.88;;;14.20;99.90;;;;;;5071069;28;20065;-60
2023/08/27 06:43:26;;;;;;;8.35;5.78;;;14.20;99.90;;;;;;5078817;28;20044;-60
2023/08/27 06:45:52;;;;;;;8.25;5.10;;;14.20;99.90;;;;;;5082560;28;20090;-59
2023/08/27 06:48:17;;;;;;;10.88;5.18;;;14.20;99.90;;;;;;5067866;28;20045;-60
2023/08/27 06:50:43;;;;;;;8.35;4.72;;;14.20;99.90;;;;;;5076222;28;20040;-60
2023/08/27 06:53:12;;;;;;;8.18;4.80;;;14.20;99.90;;;;;;5067546;28;20123;-59
2023/08/27 06:55:38;;;;;;;6.75;4.45;;;14.30;99.90;;;;;;5078514;28;20036;-60
2023/08/27 06:58:03;;;;;;;6.70;4.65;;;14.30;99.90;;;;;;5081337;28;20050;-60
2023/08/27 07:00:29;;;;;;;6.45;4.63;;;14.30;99.90;;;;;;5083638;28;20040;-60
2023/08/27 07:02:55;;;;;;;8.60;4.90;;;14.30;99.90;;;;;;5093586;28;20064;-60
2023/08/27 07:05:21;;;;;;;6.55;4.70;;;14.30;99.90;;;;;;5067886;28;20099;-60
2023/08/27 07:07:53;;;;;;;8.10;5.20;;;14.30;99.90;;;;;;5098432;27;20417;-60
2023/08/27 07:10:18;;;;;;;6.55;4.10;;;14.30;99.90;;;;;;5099786;28;20044;-59
2023/08/27 07:12:44;;;;;;;6.88;4.68;;;14.40;99.90;;;;;;5099480;28;20044;-60
2023/08/27 07:15:10;;;;;;;8.35;4.20;;;14.50;99.90;;;;;;5117161;28;20119;-59
2023/08/27 07:17:38;;;;;;;9.23;4.47;;;14.70;99.90;;;;;;5115917;28;20079;-60
2023/08/27 07:20:07;;;;;;;5.57;3.53;;;14.90;99.90;;;;;;5102278;28;20028;-60
2023/08/27 07:22:33;;;;;;;7.90;3.97;;;15.20;99.90;;;;;;5119024;28;20048;-60
2023/08/27 07:24:59;;;;;;;6.25;3.80;;;15.40;99.90;;;;;;5107442;28;20048;-59
2023/08/27 07:27:25;;;;;;;3.83;3.20;;;15.70;99.90;;;;;;5101633;28;20048;-59
2023/08/27 07:29:51;;;;;;;4.80;3.67;;;16.00;99.90;;;;;;5109061;28;20047;-59
2023/08/27 07:32:17;;;;;;;6.80;3.30;;;16.20;99.90;;;;;;5115836;28;20120;-60
2023/08/27 07:34:42;;;;;;;4.57;3.10;;;16.40;99.90;;;;;;5098769;28;20158;-60
2023/08/27 07:37:08;;;;;;;6.40;3.50;;;16.60;99.90;;;;;;5098989;28;20033;-59
2023/08/27 07:39:34;;;;;;;5.20;3.50;;;16.90;99.90;;;;;;5109479;28;20032;-60
2023/08/27 07:42:00;;;;;;;6.50;3.10;;;17.10;99.90;;;;;;5117071;28;21268;-59
2023/08/27 07:44:26;;;;;;;6.43;3.95;;;17.20;99.90;;;;;;5097994;28;20480;-60
2023/08/27 07:46:51;;;;;;;7.70;4.10;;;17.30;99.90;;;;;;5099023;28;20044;-59
2023/08/27 07:49:17;;;;;;;6.18;3.28;;;17.20;99.90;;;;;;5092545;28;20041;-59
2023/08/27 07:51:43;;;;;;;6.40;3.17;;;17.10;99.90;;;;;;5094771;28;20040;-59
2023/08/27 07:54:09;;;;;;;4.47;3.50;;;17.10;99.90;;;;;;5096420;28;20074;-59
2023/08/27 07:56:35;;;;;;;5.45;3.78;;;17.00;99.90;;;;;;5095816;28;20036;-59
2023/08/27 07:59:00;;;;;;;6.88;3.80;;;17.00;99.90;;;;;;5094537;28;20554;-60
2023/08/27 08:01:26;;;;;;;6.88;4.03;;;16.90;99.90;;;;;;5098154;28;20032;-59
2023/08/27 08:03:52;;;;;;;7.55;4.63;;;16.80;99.90;;;;;;5098984;28;20139;-59
2023/08/27 08:06:18;;;;;;;7.20;4.40;;;16.80;99.90;;;;;;5099013;28;20052;-60
2023/08/27 08:08:44;;;;;;;5.28;4.40;;;16.70;99.90;;;;;;5097957;28;20044;-59
2023/08/27 08:11:09;;;;;;;6.97;4.68;;;16.70;99.90;;;;;;5099287;28;20104;-59
2023/08/27 08:13:36;;;;;;;7.10;4.78;;;16.70;99.90;;;;;;5095101;28;20044;-59
2023/08/27 08:16:02;;;;;;;6.40;3.80;;;16.70;99.90;;;;;;5099081;28;20040;-59
2023/08/27 08:18:28;;;;;;;8.02;5.10;;;16.80;99.90;;;;;;5087167;28;20036;-59
2023/08/27 08:20:54;;;;;;;8.00;5.40;;;16.80;99.90;;;;;;5082720;28;20033;-60
2023/08/27 08:23:20;;;;;;;8.13;5.32;;;16.80;99.90;;;;;;5085531;28;20043;-59
2023/08/27 08:25:49;;;;;;;7.93;5.40;;;16.80;99.90;;;;;;5079552;28;20044;-59
2023/08/27 08:28:15;;;;;;;10.35;6.25;;;16.80;99.90;;;;;;5082278;28;20099;-60
2023/08/27 08:30:48;;;;;;;9.07;5.00;;;16.90;99.90;;;;;;5075352;28;20468;-58
2023/08/27 08:33:14;;;;;;;8.65;5.72;;;16.90;99.90;;;;;;5083602;28;20049;-59
2023/08/27 08:35:40;;;;;;;7.18;4.88;;;16.90;99.90;;;;;;5084194;28;20088;-59
2023/08/27 08:38:06;;;;;;;11.55;7.43;;;17.00;99.90;;;;;;5081571;28;20036;-60
2023/08/27 08:40:45;;;;;;;9.85;6.15;;;17.10;99.90;;;;;;5091916;28;20075;-61
2023/08/27 08:43:25;;;;;;;8.82;7.18;;;17.10;99.90;;;;;;5083456;28;20048;-60
2023/08/27 08:46:18;;;;;;;9.35;7.95;;;17.20;99.90;;;;;;5085142;28;20049;-59
2023/08/27 08:48:49;;;;;;;11.27;7.90;;;17.10;99.90;;;;;;5082414;28;20071;-59
2023/08/27 08:51:19;;;;;;;11.95;8.20;;;17.10;99.90;;;;;;5083629;28;20105;-59
2023/08/27 08:53:50;;;;;;;12.60;7.45;;;17.10;99.90;;;;;;5087042;28;20100;-59
2023/08/27 08:56:27;;;;;;;9.80;8.00;;;17.10;99.90;;;;;;5081696;28;20063;-59
2023/08/27 08:58:57;;;;;;;12.13;8.25;;;17.10;99.90;;;;;;5074416;28;20049;-60
2023/08/27 09:01:23;;;;;;;10.98;8.85;;;17.10;99.90;;;;;;5083423;28;20088;-59
2023/08/27 09:03:51;;;;;;;10.98;8.27;;;17.20;99.90;;;;;;5079955;28;20170;-59
2023/08/27 09:06:18;;;;;;;9.90;7.93;;;17.20;99.90;;;;;;5084650;28;20053;-59
2023/08/27 09:08:45;;;;;;;9.23;8.23;;;17.30;99.90;;;;;;5082733;28;20041;-58
2023/08/27 09:11:12;;;;;;;10.40;7.93;;;17.30;99.90;;;;;;5103328;28;20039;-58
2023/08/27 09:13:38;;;;;;;12.60;7.88;;;17.30;99.90;;;;;;5093421;28;20025;-59
2023/08/27 09:16:08;;;;;;;8.75;7.85;;;17.40;99.90;;;;;;5084851;28;20037;-59
2023/08/27 09:18:34;;;;;;;7.57;6.28;;;17.40;99.90;;;;;;5083337;28;20052;-58
2023/08/27 09:21:00;;;;;;;8.90;7.45;;;17.50;99.90;;;;;;5078020;28;20044;-60
2023/08/27 09:23:27;;;;;;;8.57;6.55;;;17.50;99.90;;;;;;5084070;28;20066;-57
2023/08/27 09:25:54;;;;;;;10.63;6.85;;;17.50;99.90;;;;;;5086329;28;20041;-58
2023/08/27 09:28:20;;;;;;;8.20;6.28;;;17.60;99.90;;;;;;5081825;28;20039;-60
2023/08/27 09:30:46;;;;;;;6.90;5.30;;;17.70;99.90;;;;;;5070946;28;20505;-58
2023/08/27 09:33:12;;;;;;;7.55;6.15;;;17.80;99.90;;;;;;5082452;28;20052;-59
2023/08/27 09:35:39;;;;;;;13.48;6.30;;;17.90;99.90;;;;;;5079935;28;20036;-58
2023/08/27 09:38:06;;;;;;;7.53;5.82;;;17.90;99.90;;;;;;5081497;28;20078;-58
2023/08/27 09:40:32;;;;;;;8.45;5.90;;;17.90;99.90;;;;;;5083668;28;20044;-58
2023/08/27 09:43:17;;;;;;;9.23;5.50;;;18.00;99.90;;;;;;5081234;28;20068;-58
2023/08/27 09:45:42;;;;;;;7.38;5.32;;;18.20;99.90;;;;;;5086321;28;20053;-60
2023/08/27 09:48:08;;;;;;;9.48;6.60;;;18.20;99.90;;;;;;5079558;28;20060;-59
2023/08/27 09:50:34;;;;;;;9.00;6.60;;;18.10;99.90;;;;;;5084044;28;20124;-58
2023/08/27 09:53:12;;;;;;;10.18;6.90;;;18.10;99.90;;;;;;5082598;28;20118;-58
2023/08/27 09:55:39;;;;;;;7.20;5.90;;;18.00;99.90;;;;;;5080203;28;20033;-58
2023/08/27 09:58:06;;;;;;;10.18;6.20;;;18.00;99.90;;;;;;5078669;28;20032;-58
2023/08/27 10:00:34;;;;;;;8.18;5.70;;;17.90;99.90;;;;;;5081303;28;20436;-58
2023/08/27 10:02:59;;;;;;;9.32;5.88;;;17.90;99.90;;;;;;5083679;28;20044;-58
2023/08/27 10:05:31;;;;;;;7.72;5.85;;;17.90;99.90;;;;;;5082283;28;20048;-57
2023/08/27 10:08:02;;;;;;;9.23;7.22;;;17.90;99.90;;;;;;5081992;28;20050;-58
2023/08/27 10:10:28;;;;;;;12.05;8.38;;;17.90;99.90;;;;;;5078516;28;20388;-58
2023/08/27 10:12:56;;;;;;;11.20;8.80;;;17.80;99.90;;;;;;5082109;28;20558;-57
2023/08/27 10:15:26;;;;;;;14.77;8.90;;;17.80;99.90;;;;;;5080515;28;20044;-58
2023/08/27 10:17:53;;;;;;;12.32;8.50;;;17.70;99.90;;;;;;5081218;28;20407;-59
2023/08/27 10:20:20;;;;;;;11.25;8.50;;;17.70;99.90;;;;;;5092057;28;20039;-58
2023/08/27 10:22:49;;;;;;;9.48;8.48;;;17.80;99.90;;;;;;5085906;28;20044;-58
2023/08/27 10:25:18;;;;;;;11.13;8.20;;;17.80;99.90;;;;;;5080499;28;20382;-58
2023/08/27 10:27:49;;;;;;;9.38;8.38;;;17.90;99.90;;;;;;5094961;28;20110;-57
2023/08/27 10:30:16;;;;;;;10.60;8.63;;;17.90;99.90;;;;;;5095161;28;20111;-58
2023/08/27 10:32:42;;;;;;;10.93;8.43;;;17.90;99.90;;;;;;5081594;28;20070;-61
2023/08/27 10:35:09;;;;;;;10.45;8.10;;;17.90;99.90;;;;;;5080471;28;20064;-57
2023/08/27 10:37:38;;;;;;;12.45;8.10;;;17.90;99.90;;;;;;5081369;28;20044;-58
2023/08/27 10:40:08;;;;;;;11.52;8.90;;;18.00;99.90;;;;;;5080969;28;20040;-57
2023/08/27 10:42:36;;;;;;;13.30;8.48;;;18.00;99.90;;;;;;5080716;28;20096;-58
2023/08/27 10:45:16;;;;;;;9.63;7.72;;;18.00;99.90;;;;;;5080477;28;20037;-58
2023/08/27 10:48:05;;;;;;;10.00;7.97;;;18.10;99.90;;;;;;5080002;28;20055;-59
2023/08/27 10:50:51;;;;;;;12.13;7.13;;;18.10;99.90;;;;;;5081343;28;20040;-58
2023/08/27 10:53:19;;;;;;;9.13;6.90;;;18.10;99.90;;;;;;5086639;28;20051;-58
2023/08/27 10:55:50;;;;;;;9.73;7.75;;;18.10;99.90;;;;;;5101642;28;20032;-59
2023/08/27 10:58:26;;;;;;;10.95;7.20;;;18.20;99.90;;;;;;5076516;28;20082;-58
2023/08/27 11:01:10;;;;;;;;;;;18.10;99.90;;;;;;5075388;28;20049;-58
2023/08/27 11:03:58;;;;;;;7.97;7.18;;;18.10;99.90;;;;;;5062561;28;19921;-57
2023/08/27 11:06:38;;;;;;;10.40;7.18;;;18.10;99.90;;;;;;5082535;28;20056;-57
2023/08/27 11:09:16;;;;;;;12.15;7.45;;;18.00;99.90;;;;;;5080599;28;20298;-58
2023/08/27 11:11:50;;;;;;;10.27;7.28;;;18.00;99.90;;;;;;5079106;28;20040;-58
2023/08/27 11:14:18;;;;;;;11.50;7.60;;;18.00;99.90;;;;;;5069517;28;20048;-57
2023/08/27 11:16:54;;;;;;;9.68;7.43;;;18.00;99.90;;;;;;5081801;28;20133;-57
2023/08/27 11:19:34;;;;;;;;;;;17.90;99.90;;;;;;5073047;28;20048;-57
2023/08/27 11:22:14;;;;;;;8.05;7.20;;;17.90;99.90;;;;;;5066158;28;19920;-57
2023/08/27 11:24:45;;;;;;;12.55;7.15;;;17.80;99.90;;;;;;5078227;28;20041;-57
2023/08/27 11:27:12;;;;;;;11.45;7.70;;;17.80;99.90;;;;;;5078448;28;20366;-57
2023/08/27 11:29:40;;;;;;;8.60;7.60;;;17.80;99.90;;;;;;5096238;28;20044;-57
2023/08/27 11:32:10;;;;;;;11.93;8.07;;;17.80;99.90;;;;;;5093786;28;20044;-57
2023/08/27 11:34:40;;;;;;;10.57;7.97;;;17.80;99.90;;;;;;5100895;28;20043;-57
2023/08/27 11:37:06;;;;;;;9.75;7.13;;;17.80;99.90;;;;;;5102055;28;20492;-57
2023/08/27 11:39:36;;;;;;;12.60;8.80;;;17.70;99.90;;;;;;5100775;28;20505;-57
2023/08/27 11:42:08;;;;;;;10.77;9.00;;;17.80;99.90;;;;;;5088931;28;20067;-57
2023/08/27 11:44:33;;;;;;;10.38;9.07;;;17.90;99.90;;;;;;5079732;28;20501;-56
2023/08/27 11:47:05;;;;;;;7.15;6.43;;;18.00;99.90;;;;;;5081547;28;20045;-57
2023/08/27 11:49:33;;;;;;;2.33;1.85;;;18.10;99.90;;;;;;5081902;28;20040;-56
2023/08/27 11:52:00;;;;;;;3.30;1.67;;;18.10;99.90;;;;;;5080132;28;20044;-56
2023/08/27 11:54:33;;;;;;;4.57;1.35;;;18.10;99.90;;;;;;5083394;28;20088;-57
2023/08/27 11:56:59;;;;;;;1.92;1.30;;;18.00;99.90;;;;;;5085110;28;20040;-56
2023/08/27 11:59:28;;;;;;;1.85;1.17;;;17.90;99.90;;;;;;5095842;28;20499;-57
2023/08/27 12:01:58;;;;;;;1.48;0.82;;;17.90;99.90;;;;;;5087479;28;20044;-56
2023/08/27 12:04:32;;;;;;;2.17;1.20;;;17.80;99.90;;;;;;5082611;28;20079;-57
2023/08/27 12:07:02;;;;;;;3.17;1.20;;;17.70;99.90;;;;;;5085218;28;20513;-57
2023/08/27 12:09:30;;;;;;;2.03;1.30;;;17.70;99.90;;;;;;5083679;28;20032;-58
2023/08/27 12:12:10;;;;;;;2.72;1.40;;;17.70;99.90;;;;;;5086270;28;20048;-57
2023/08/27 12:14:37;;;;;;;2.97;1.50;;;17.80;99.90;;;;;;5082746;28;20056;-56
2023/08/27 12:17:07;;;;;;;1.80;1.33;;;17.80;99.90;;;;;;5084511;28;20049;-57
2023/08/27 12:19:34;;;;;;;2.72;1.52;;;17.80;99.90;;;;;;5084639;28;20045;-57
2023/08/27 12:22:00;;;;;;;5.85;1.60;;;17.90;99.90;;;;;;5083162;28;20051;-56
2023/08/27 12:24:35;;;;;;;3.13;1.67;;;17.90;99.90;;;;;;5084613;28;20080;-56
2023/08/27 12:27:02;;;;;;;;;;;17.90;99.90;;;;;;5084562;28;20048;-56
2023/08/27 12:29:34;;;;;;;3.53;1.80;;;17.90;99.90;;;;;;5085132;28;19989;-56
2023/08/27 12:32:14;;;;;;;4.80;1.98;;;17.90;99.90;;;;;;5089918;28;20044;-56
2023/08/27 12:34:42;;;;;;;3.00;2.10;;;18.00;99.90;;;;;;5078888;28;20052;-57
2023/08/27 12:37:09;;;;;;;4.32;2.50;;;18.00;99.90;;;;;;5084146;28;20037;-56
2023/08/27 12:39:37;;;;;;;3.63;2.42;;;18.00;99.90;;;;;;5082032;28;20088;-56
2023/08/27 12:42:03;;;;;;;4.15;2.50;;;18.00;99.90;;;;;;5084966;28;20082;-57
2023/08/27 12:44:29;;;;;;;4.07;2.90;;;18.00;99.90;;;;;;5084465;28;20136;-56